Terminal Aerodrome Forecast
Issued by NWS

Home | Current Version | Previous Version | Graphics & Text | Print | Product List | Glossary On
Versions: 1 2 3 4 5 6 7 8 9 10 11 12 13 14 15 16 17 18 19 20 21 22
000
FTUS41 KCLE 302335
TAFFDY
TAF
KFDY 302335Z 0100/0124 08010KT 3SM RA BR OVC008
      TEMPO 0100/0104 2SM RA BR OVC005
     FM010700 19006KT 3SM -RA BR OVC004
     FM011200 24004KT 6SM BR OVC010
     FM012200 03006KT P6SM OVC025=

USA.gov is the U.S. government's official web portal to all federal, state and local government web resources and services.